Pocasset, Massachusetts
Current Conditions -  °F | °C
As of 8:55 PM on Monday 20 Oct 2014 (Local Time) from KFMH Reporting Station
Broken Clouds Broken Clouds  
Wind Chill: 48°   Ceiling: 19000
Heat Index: 48°   Visibility: 10mi
Dew Point: 43°   Wind: 0mph
Humidity: 82%   Direction: NA
Pressure: 30.03"   Gusts: NA
Location:  41.69°N, 70.64°W
Report Text: KFMH 210055Z AUTO 00000KT 10SM SCT032 BKN190 BKN220 09/06 A3003 RMK AO2
Loading
Personal Weather Stations






























Interactive Weather Map
Tropical Storm Tracking
New forecast layout! Learn more

10-Day Weather Forecast

Advertisements
Track Severe Weather on mobile